Time;durP1;ratioP1;P1;durP2;ratioP2;P2;SDS_P1;SDS_P2;PMS_P1;PMS_P2;Temp;Humidity;BMP_temperature;BMP_pressure;BME280_temperature;BME280_humidity;BME280_pressure;Samples;Min_cycle;Max_cycle;Signal;HPM_P1;HPM_P2
2023/08/06 00:01:21;;;;;;;14.07;8.27;;;13.80;99.90;;;;;;6249087;22;20026;-88
2023/08/06 00:03:46;;;;;;;14.27;7.47;;;13.90;99.90;;;;;;6249230;22;20334;-88
2023/08/06 00:06:21;;;;;;;16.00;8.68;;;14.80;99.90;;;;;;6248567;22;20023;-88
2023/08/06 00:08:47;;;;;;;16.80;8.57;;;13.70;99.90;;;;;;6276810;22;20012;-87
2023/08/06 00:11:16;;;;;;;15.32;7.93;;;14.20;99.90;;;;;;6249701;22;20051;-87
2023/08/06 00:14:00;;;;;;;16.73;8.75;;;13.60;99.90;;;;;;6248334;22;20558;-88
2023/08/06 00:16:25;;;;;;;;;;;13.70;99.90;;;;;;6276665;22;20070;-88
2023/08/06 00:18:51;;;;;;;15.70;8.25;;;13.70;99.90;;;;;;6249537;22;19918;-88
2023/08/06 00:21:16;;;;;;;16.05;8.15;;;13.70;99.90;;;;;;6252799;22;20058;-88
2023/08/06 00:23:42;;;;;;;16.63;8.45;;;13.70;99.90;;;;;;6249410;22;20016;-88
2023/08/06 00:26:08;;;;;;;14.70;8.23;;;13.70;99.90;;;;;;6249510;22;20011;-88
2023/08/06 00:28:46;;;;;;;14.45;8.25;;;14.50;99.90;;;;;;6248320;22;20095;-88
2023/08/06 00:31:11;;;;;;;17.98;8.50;;;13.70;99.90;;;;;;6249358;22;20094;-87
2023/08/06 00:33:43;;;;;;;14.10;7.55;;;13.70;99.90;;;;;;6248821;22;20043;-88
2023/08/06 00:36:09;;;;;;;16.40;8.63;;;13.70;99.90;;;;;;6274996;22;20503;-88
2023/08/06 00:38:35;;;;;;;15.40;8.50;;;13.70;99.90;;;;;;6276057;22;20101;-88
2023/08/06 00:44:16;;;;;;;16.48;9.00;;;14.50;99.90;;;;;;6276348;22;20041;-88
2023/08/06 00:49:07;;;;;;;16.38;9.40;;;13.70;99.90;;;;;;6305736;22;20042;-87
2023/08/06 00:51:36;;;;;;;18.27;9.93;;;13.30;99.90;;;;;;6278835;22;20489;-88
2023/08/06 00:54:02;;;;;;;16.92;9.75;;;14.70;99.90;;;;;;6307478;22;20089;-87
2023/08/06 00:56:53;;;;;;;19.30;8.98;;;13.90;99.90;;;;;;6306405;22;20015;-88
2023/08/06 00:59:40;;;;;;;17.10;9.52;;;13.60;99.90;;;;;;6305763;22;20011;-88
2023/08/06 01:02:06;;;;;;;16.55;9.40;;;13.70;99.90;;;;;;6279907;22;20019;-88
2023/08/06 01:04:33;;;;;;;17.27;9.00;;;14.80;99.90;;;;;;6279015;22;20435;-88
2023/08/06 01:07:17;;;;;;;15.93;9.18;;;13.70;99.90;;;;;;6307385;22;20019;-87
2023/08/06 01:10:20;;;;;;;18.80;9.35;;;13.70;99.90;;;;;;6306389;22;20102;-88
2023/08/06 01:12:58;;;;;;;18.70;9.90;;;13.70;99.90;;;;;;6306554;22;20096;-88
2023/08/06 01:15:30;;;;;;;18.60;10.23;;;13.70;99.90;;;;;;6307461;22;20015;-88
2023/08/06 01:17:55;;;;;;;19.02;9.38;;;13.70;99.90;;;;;;6278519;22;20018;-88
2023/08/06 01:24:26;;;;;;;17.95;9.65;;;13.70;99.90;;;;;;6059932;23;20026;-88
2023/08/06 01:27:23;;;;;;;18.05;9.95;;;13.60;99.90;;;;;;6101636;22;20023;-88
2023/08/06 01:30:13;;;;;;;17.80;10.07;;;13.70;99.90;;;;;;6279192;22;20309;-88
2023/08/06 01:32:44;;;;;;;19.80;10.55;;;13.70;99.90;;;;;;6277325;22;20355;-88
2023/08/06 01:35:13;;;;;;;19.38;10.73;;;13.70;99.90;;;;;;6279454;22;20037;-88
2023/08/06 01:37:48;;;;;;;17.38;10.05;;;13.70;99.90;;;;;;6278285;22;20019;-88
2023/08/06 01:40:25;;;;;;;18.85;10.20;;;13.70;99.90;;;;;;6305905;22;20023;-88
2023/08/06 01:42:50;;;;;;;18.70;10.20;;;13.70;99.90;;;;;;6279702;22;20065;-88
2023/08/06 01:45:16;;;;;;;19.75;10.93;;;14.80;99.90;;;;;;6278431;22;20015;-88
2023/08/06 01:47:45;;;;;;;20.13;12.00;;;13.70;99.90;;;;;;6278659;22;20019;-87
2023/08/06 01:50:10;;;;;;;25.27;11.52;;;14.20;99.90;;;;;;6307008;22;20015;-87
2023/08/06 01:52:36;;;;;;;21.33;10.95;;;13.70;99.90;;;;;;6304800;22;20400;-87
2023/08/06 01:55:02;;;;;;;22.05;10.98;;;13.70;99.90;;;;;;6307423;22;20012;-87
2023/08/06 01:57:28;;;;;;;19.42;11.27;;;13.60;99.90;;;;;;6306773;22;20016;-88
2023/08/06 01:59:54;;;;;;;21.92;11.15;;;13.70;99.90;;;;;;6304753;22;20023;-87
2023/08/06 02:02:22;;;;;;;19.70;11.73;;;13.60;99.90;;;;;;6307067;22;20011;-87
2023/08/06 02:04:54;;;;;;;18.60;11.18;;;13.70;99.90;;;;;;6276246;22;20016;-87
2023/08/06 02:07:20;;;;;;;21.15;11.60;;;14.80;99.90;;;;;;6305699;22;20019;-87
2023/08/06 02:12:25;;;;;;;20.65;11.80;;;13.60;99.90;;;;;;6304317;22;20027;-87
2023/08/06 02:15:10;;;;;;;20.95;11.48;;;13.60;99.90;;;;;;6277789;22;20015;-87
2023/08/06 02:17:51;;;;;;;18.90;11.50;;;13.60;99.90;;;;;;6279263;22;20019;-87
2023/08/06 02:21:08;;;;;;;23.05;11.35;;;13.60;99.90;;;;;;6264926;22;20020;-87
2023/08/06 02:23:59;;;;;;;20.80;12.18;;;13.50;99.90;;;;;;6273052;22;20019;-87
2023/08/06 02:26:56;;;;;;;19.08;10.90;;;13.00;99.90;;;;;;6272784;22;20019;-88
2023/08/06 02:29:41;;;;;;;20.95;12.05;;;13.60;99.90;;;;;;6273616;22;20020;-88
2023/08/06 02:32:19;;;;;;;19.05;11.32;;;13.60;99.90;;;;;;6272655;22;20051;-87
2023/08/06 02:34:48;;;;;;;19.45;10.80;;;14.60;99.90;;;;;;6247309;22;20460;-87
2023/08/06 02:37:13;;;;;;;20.77;11.60;;;13.60;99.90;;;;;;6274860;22;20436;-87
2023/08/06 02:43:29;;;;;;;19.90;11.68;;;13.60;99.90;;;;;;6275013;22;20015;-87
2023/08/06 02:46:01;;;;;;;22.10;11.63;;;14.60;99.90;;;;;;6247608;22;20019;-87
2023/08/06 02:48:27;;;;;;;22.13;11.68;;;13.50;99.90;;;;;;6274647;22;20455;-87
2023/08/06 02:51:07;;;;;;;20.73;11.88;;;13.50;99.90;;;;;;6275246;22;20142;-87
2023/08/06 02:54:21;;;;;;;20.92;11.30;;;13.60;99.90;;;;;;6274032;22;20024;-88
2023/08/06 02:56:47;;;;;;;20.67;11.70;;;13.60;99.90;;;;;;6268878;22;20090;-87
2023/08/06 02:59:12;;;;;;;20.23;11.35;;;14.20;99.90;;;;;;6274553;22;20071;-88
2023/08/06 03:01:38;;;;;;;20.55;11.32;;;13.50;99.90;;;;;;6277234;22;20018;-87
2023/08/06 03:04:19;;;;;;;20.40;11.43;;;13.50;99.90;;;;;;6276460;22;20030;-87
2023/08/06 03:06:45;;;;;;;19.30;11.32;;;14.60;99.90;;;;;;6285553;22;20061;-87
2023/08/06 03:09:10;;;;;;;20.92;11.43;;;13.50;99.90;;;;;;6261878;22;20016;-87
2023/08/06 03:11:36;;;;;;;20.45;11.25;;;13.40;99.90;;;;;;6280431;22;20019;-87
2023/08/06 03:14:08;;;;;;;20.55;11.10;;;13.40;99.90;;;;;;6279831;22;20335;-87
2023/08/06 03:16:49;;;;;;;21.88;11.30;;;13.40;99.90;;;;;;6273504;22;20325;-87
2023/08/06 03:19:17;;;;;;;20.83;11.00;;;13.30;99.90;;;;;;6250080;22;20069;-87
2023/08/06 03:21:43;;;;;;;20.40;11.57;;;13.30;99.90;;;;;;6247753;22;21860;-87
2023/08/06 03:24:08;;;;;;;22.73;11.75;;;13.30;99.90;;;;;;6307164;22;20043;-87
2023/08/06 03:26:34;;;;;;;19.25;11.20;;;13.20;99.90;;;;;;6280756;22;20089;-87
2023/08/06 03:29:09;;;;;;;21.23;11.55;;;13.20;99.90;;;;;;6308445;22;20016;-87
2023/08/06 03:31:34;;;;;;;21.42;11.40;;;13.60;99.90;;;;;;6279427;22;20072;-87
2023/08/06 03:34:00;;;;;;;23.58;11.50;;;13.10;99.90;;;;;;6280564;22;20011;-87
2023/08/06 03:36:26;;;;;;;24.50;12.18;;;13.20;99.90;;;;;;6281000;22;20050;-87
2023/08/06 03:38:51;;;;;;;23.38;12.60;;;13.90;99.90;;;;;;6279892;22;20335;-87
2023/08/06 03:41:29;;;;;;;21.45;12.20;;;14.30;99.90;;;;;;6307865;22;20328;-87
2023/08/06 03:43:55;;;;;;;23.45;12.60;;;13.10;99.90;;;;;;6307363;22;20439;-87
2023/08/06 03:46:36;;;;;;;25.45;12.82;;;14.10;99.90;;;;;;6280350;22;20011;-87
2023/08/06 03:49:02;;;;;;;21.10;12.07;;;13.20;99.90;;;;;;6280583;22;20019;-87
2023/08/06 03:51:40;;;;;;;25.65;13.25;;;13.60;99.90;;;;;;6279266;22;20069;-88
2023/08/06 03:56:51;;;;;;;22.75;12.63;;;13.30;99.90;;;;;;6307420;22;20015;-87
2023/08/06 03:59:16;;;;;;;25.15;12.90;;;13.30;99.90;;;;;;6279902;22;20038;-87
2023/08/06 04:01:42;;;;;;;23.08;12.65;;;13.30;99.90;;;;;;6281386;22;20478;-87
2023/08/06 04:04:07;;;;;;;24.98;13.10;;;13.30;99.90;;;;;;6280153;22;20018;-87
2023/08/06 04:06:47;;;;;;;23.02;12.85;;;13.30;99.90;;;;;;6267916;22;20707;-85
2023/08/06 04:09:13;;;;;;;22.05;12.57;;;13.30;99.90;;;;;;6278874;22;20027;-85
2023/08/06 04:11:42;;;;;;;28.45;15.30;;;13.30;99.90;;;;;;6279777;22;20106;-87
2023/08/06 04:14:22;;;;;;;21.75;12.73;;;14.40;99.90;;;;;;6279830;22;20082;-88
2023/08/06 04:16:51;;;;;;;24.63;13.57;;;13.40;99.90;;;;;;6280006;22;20015;-85
2023/08/06 04:19:23;;;;;;;22.30;13.52;;;13.30;99.90;;;;;;6280003;22;20549;-85
2023/08/06 04:21:49;;;;;;;22.50;12.77;;;13.40;99.90;;;;;;6279732;22;20011;-85
2023/08/06 04:24:15;;;;;;;24.98;13.10;;;13.40;99.90;;;;;;6280673;22;20096;-85
2023/08/06 04:26:53;;;;;;;25.00;13.30;;;13.40;99.90;;;;;;6278489;22;20439;-85
2023/08/06 04:29:31;;;;;;;24.45;13.05;;;14.30;99.90;;;;;;6280337;22;20061;-85
2023/08/06 04:31:56;;;;;;;23.10;12.73;;;13.40;99.90;;;;;;6279901;22;20019;-85
2023/08/06 04:36:54;;;;;;;23.10;12.95;;;13.40;99.90;;;;;;6306169;22;20057;-85
2023/08/06 04:39:26;;;;;;;25.88;13.43;;;14.40;99.90;;;;;;6276950;22;20103;-85
2023/08/06 04:41:52;;;;;;;23.95;13.70;;;14.40;99.90;;;;;;6306388;22;20018;-85
2023/08/06 04:44:33;;;;;;;24.42;13.35;;;14.20;99.90;;;;;;6305933;22;20350;-85
2023/08/06 04:46:59;;;;;;;24.83;13.50;;;14.00;99.90;;;;;;6279704;22;20011;-85
2023/08/06 04:49:40;;;;;;;25.23;13.43;;;13.50;99.90;;;;;;6305067;22;20011;-85
2023/08/06 04:52:06;;;;;;;23.90;13.90;;;13.90;99.90;;;;;;6279072;22;20023;-85
2023/08/06 04:54:37;;;;;;;26.85;14.77;;;13.60;99.90;;;;;;6307447;22;20366;-85
2023/08/06 04:59:55;;;;;;;22.80;13.45;;;13.70;99.90;;;;;;6297839;22;20030;-85
2023/08/06 05:02:34;;;;;;;23.83;13.77;;;13.70;99.90;;;;;;6279010;22;20339;-85
2023/08/06 05:05:09;;;;;;;22.77;13.55;;;14.20;99.90;;;;;;6281277;22;20019;-85
2023/08/06 05:07:50;;;;;;;24.38;13.68;;;13.70;99.90;;;;;;6280333;22;20033;-85
2023/08/06 05:10:16;;;;;;;26.05;14.50;;;13.80;99.90;;;;;;6306519;22;20022;-85
2023/08/06 05:12:57;;;;;;;23.30;13.20;;;13.90;99.90;;;;;;6306856;22;20023;-85
2023/08/06 05:19:09;;;;;;;22.73;13.60;;;13.80;99.90;;;;;;6279387;22;20327;-85
2023/08/06 05:21:38;;;;;;;;;;;13.80;99.90;;;;;;6307106;22;20062;-85
2023/08/06 05:24:34;;;;;;;22.80;13.73;;;13.80;99.90;;;;;;6278523;22;19910;-85
2023/08/06 05:27:09;;;;;;;21.20;12.48;;;13.90;99.90;;;;;;6279302;22;20511;-85
2023/08/06 05:30:12;;;;;;;23.73;13.73;;;14.80;99.90;;;;;;6279576;22;20022;-85
2023/08/06 05:32:38;;;;;;;23.55;12.98;;;13.90;99.90;;;;;;6278409;22;20023;-85
2023/08/06 05:39:45;;;;;;;24.45;13.98;;;14.00;99.90;;;;;;6306532;22;20042;-87
2023/08/06 05:42:13;;;;;;;24.20;14.23;;;13.70;99.90;;;;;;6187568;23;20021;-87
2023/08/06 05:44:39;;;;;;;23.35;14.63;;;15.30;99.90;;;;;;6186295;23;20099;-87
2023/08/06 05:47:37;;;;;;;26.27;14.77;;;14.10;99.90;;;;;;6214707;23;20020;-87
2023/08/06 05:50:15;;;;;;;23.90;14.35;;;14.20;99.90;;;;;;6189826;23;20016;-88
2023/08/06 05:52:49;;;;;;;23.58;14.48;;;14.30;99.90;;;;;;6190843;23;20437;-88
2023/08/06 05:55:15;;;;;;;23.58;14.20;;;14.30;99.90;;;;;;6191601;23;20013;-87
2023/08/06 05:57:41;;;;;;;24.65;13.95;;;14.40;99.90;;;;;;6188730;23;20088;-88
2023/08/06 06:00:08;;;;;;;23.98;14.32;;;14.50;99.90;;;;;;6187855;23;20020;-87
2023/08/06 06:02:33;;;;;;;21.98;13.50;;;14.60;99.90;;;;;;6212478;23;20469;-88
2023/08/06 06:05:30;;;;;;;21.88;13.60;;;14.70;99.90;;;;;;6226794;22;20097;-87
2023/08/06 06:08:02;;;;;;;20.65;14.15;;;14.50;99.90;;;;;;6304615;22;20045;-88
2023/08/06 06:10:40;;;;;;;20.38;13.07;;;14.80;99.90;;;;;;6280664;22;20026;-88
2023/08/06 06:13:06;;;;;;;21.40;12.95;;;14.80;99.90;;;;;;6280804;22;20101;-87
2023/08/06 06:15:32;;;;;;;21.42;13.30;;;15.20;99.90;;;;;;6281026;22;20098;-88
2023/08/06 06:18:41;;;;;;;19.38;12.80;;;14.90;99.90;;;;;;6280608;22;20015;-88
2023/08/06 06:21:07;;;;;;;18.65;12.55;;;15.00;99.90;;;;;;6279995;22;20023;-87
2023/08/06 06:23:39;;;;;;;18.70;12.10;;;15.90;99.90;;;;;;6308130;22;20046;-88
2023/08/06 06:30:07;;;;;;;19.40;12.23;;;15.20;99.90;;;;;;6299211;22;20348;-85
2023/08/06 06:32:54;;;;;;;19.75;12.30;;;15.40;99.90;;;;;;6280445;22;20146;-85
2023/08/06 06:38:49;;;;;;;18.63;12.25;;;15.50;99.90;;;;;;6311636;22;20035;-87
2023/08/06 06:41:18;;;;;;;17.23;11.40;;;15.50;99.90;;;;;;6282855;22;20008;-88
2023/08/06 06:44:08;;;;;;;17.33;12.02;;;15.50;99.90;;;;;;6312431;22;20023;-88
2023/08/06 06:46:37;;;;;;;18.52;11.75;;;15.40;99.90;;;;;;6311507;22;20015;-87
2023/08/06 06:49:02;;;;;;;17.30;11.30;;;16.00;99.90;;;;;;6285147;22;20053;-87
2023/08/06 06:51:38;;;;;;;16.98;11.52;;;15.60;99.90;;;;;;6311501;22;20022;-87
2023/08/06 06:54:04;;;;;;;19.40;11.57;;;16.30;99.90;;;;;;6284171;22;20465;-85
2023/08/06 06:57:00;;;;;;;18.42;11.95;;;15.80;99.90;;;;;;6313973;22;20019;-85
2023/08/06 07:00:19;;;;;;;17.38;11.63;;;15.80;99.90;;;;;;6285521;22;20042;-85
2023/08/06 07:03:02;;;;;;;17.42;10.85;;;15.80;99.90;;;;;;6215093;23;20027;-83
2023/08/06 07:05:46;;;;;;;18.50;12.15;;;15.90;99.90;;;;;;6216427;23;20016;-85
2023/08/06 07:08:49;;;;;;;16.85;10.88;;;16.50;99.90;;;;;;6185929;23;20016;-82
2023/08/06 07:11:27;;;;;;;18.30;11.75;;;15.60;99.90;;;;;;6137463;23;20092;-82
2023/08/06 07:14:20;;;;;;;17.38;11.15;;;15.90;99.90;;;;;;6219242;22;20021;-83
2023/08/06 07:16:46;;;;;;;18.40;12.00;;;16.20;99.90;;;;;;6282064;22;20022;-83
2023/08/06 07:25:50;;;;;;;18.92;10.82;;;15.80;99.90;;;;;;6279289;22;20023;-83
2023/08/06 07:28:30;;;;;;;15.95;10.75;;;15.80;99.90;;;;;;6189165;23;20021;-83
2023/08/06 07:35:14;;;;;;;16.27;10.70;;;15.70;99.90;;;;;;6214017;23;20094;-84
2023/08/06 07:41:27;;;;;;;14.50;10.23;;;15.40;99.90;;;;;;6094480;23;20022;-82
2023/08/06 07:44:34;;;;;;;16.10;10.82;;;16.10;99.90;;;;;;6093182;23;20025;-82
2023/08/06 07:47:45;;;;;;;15.32;10.55;;;16.00;99.90;;;;;;6094490;23;20031;-83
2023/08/06 07:50:11;;;;;;;16.27;10.90;;;15.20;99.90;;;;;;6111155;23;20021;-82
2023/08/06 07:56:49;;;;;;;15.80;10.30;;;16.00;99.90;;;;;;6187472;23;20067;-82
2023/08/06 08:03:05;;;;;;;15.68;10.88;;;15.90;99.90;;;;;;6126186;23;20053;-82
2023/08/06 08:13:27;;;;;;;13.95;9.13;;;16.60;99.90;;;;;;6150596;23;20056;-82
2023/08/06 08:20:32;;;;;;;;;;;;;;;;;;;;;
2023/08/06 08:23:24;;;;;;;14.80;9.50;;;17.10;99.90;;;;;;6118283;23;20475;-81
2023/08/06 08:25:51;;;;;;;14.70;9.93;;;17.30;99.90;;;;;;6211364;22;20011;-81
2023/08/06 08:28:25;;;;;;;14.20;9.75;;;17.40;99.90;;;;;;6277926;22;20051;-81
2023/08/06 08:30:51;;;;;;;14.57;10.00;;;17.60;99.90;;;;;;6279217;22;20011;-83
2023/08/06 08:36:11;;;;;;;13.85;9.98;;;18.00;99.90;;;;;;6262581;22;20026;-81
2023/08/06 08:38:37;;;;;;;13.02;9.38;;;18.20;99.90;;;;;;6306270;22;20007;-81
2023/08/06 08:41:02;;;;;;;15.60;9.55;;;18.50;99.90;;;;;;6277776;22;20194;-81
2023/08/06 08:51:25;;;;;;;13.15;9.10;;;18.80;99.90;;;;;;6064897;23;20142;-81
2023/08/06 08:54:17;;;;;;;12.88;8.93;;;18.70;99.90;;;;;;6107544;23;20028;-81
2023/08/06 09:01:04;;;;;;;13.15;8.30;;;19.10;99.90;;;;;;6306860;22;20033;-81
2023/08/06 09:03:31;;;;;;;13.27;8.93;;;19.10;99.90;;;;;;6181877;23;20100;-81
2023/08/06 09:06:11;;;;;;;11.68;7.75;;;19.40;99.90;;;;;;6179009;23;20010;-80
2023/08/06 09:08:47;;;;;;;13.70;8.52;;;19.30;99.90;;;;;;6274236;22;20051;-80
2023/08/06 09:11:13;;;;;;;12.85;8.60;;;19.40;99.90;;;;;;6279063;22;20034;-81
2023/08/06 09:13:38;;;;;;;12.05;8.60;;;19.60;99.90;;;;;;6279091;22;20339;-80
2023/08/06 09:16:06;;;;;;;12.70;8.63;;;19.60;99.90;;;;;;6305116;22;20019;-80
2023/08/06 09:18:32;;;;;;;12.40;7.80;;;19.50;99.90;;;;;;6279574;22;20012;-80
2023/08/06 09:20:58;;;;;;;12.25;8.60;;;19.50;99.90;;;;;;6279075;22;20023;-80
2023/08/06 09:23:30;;;;;;;12.02;7.72;;;19.60;99.90;;;;;;6278312;22;20482;-80
2023/08/06 09:25:57;;;;;;;13.95;8.38;;;19.70;99.90;;;;;;6306988;22;20466;-82
2023/08/06 09:28:38;;;;;;;13.38;8.00;;;20.00;99.90;;;;;;6306771;22;20008;-82
2023/08/06 09:34:30;;;;;;;12.10;7.90;;;19.90;99.90;;;;;;6274114;22;20016;-82
2023/08/06 09:37:50;;;;;;;12.13;7.38;;;19.90;99.90;;;;;;6274929;22;20051;-82
2023/08/06 09:40:30;;;;;;;10.27;6.57;;;19.60;99.90;;;;;;6199766;22;20020;-81
2023/08/06 09:53:02;;;;;;;11.32;6.45;;;21.20;99.90;;;;;;6302608;22;20383;-82
2023/08/06 09:59:45;;;;;;;10.35;6.03;;;21.20;99.90;;;;;;6277098;22;20015;-82
2023/08/06 10:02:13;;;;;;;11.07;6.30;;;20.80;99.90;;;;;;6305248;22;20019;-83
2023/08/06 10:05:08;;;;;;;10.35;5.90;;;20.90;99.90;;;;;;6276843;22;20462;-82
2023/08/06 10:07:53;;;;;;;9.90;6.18;;;21.00;99.90;;;;;;6303749;22;20742;-82
2023/08/06 10:10:35;;;;;;;10.60;6.43;;;21.40;99.90;;;;;;6279722;22;20331;-83
2023/08/06 10:13:04;;;;;;;10.70;6.15;;;21.20;99.90;;;;;;6303815;22;20106;-82
2023/08/06 10:15:40;;;;;;;10.77;5.80;;;21.30;99.90;;;;;;6306958;22;20086;-82
2023/08/06 10:18:06;;;;;;;11.65;5.80;;;21.20;99.90;;;;;;6279180;22;20015;-83
2023/08/06 10:20:59;;;;;;;9.70;5.75;;;20.90;99.90;;;;;;6307236;22;20069;-82
2023/08/06 10:29:38;;;;;;;10.65;6.40;;;20.50;99.90;;;;;;6063040;23;20049;-82
2023/08/06 10:32:06;;;;;;;12.20;6.07;;;20.60;99.90;;;;;;6062833;23;20034;-84
2023/08/06 10:35:18;;;;;;;10.15;5.32;;;20.80;99.90;;;;;;6037373;23;20029;-83
2023/08/06 10:41:31;;;;;;;9.93;5.18;;;21.20;99.90;;;;;;6301120;22;20054;-84
2023/08/06 10:44:49;;;;;;;12.18;5.78;;;21.10;99.90;;;;;;6280707;22;20466;-84
2023/08/06 10:48:05;;;;;;;9.40;5.38;;;20.90;99.90;;;;;;6307556;22;20026;-84
2023/08/06 10:50:41;;;;;;;11.70;5.68;;;21.00;99.90;;;;;;6306138;22;20447;-83
2023/08/06 10:53:12;;;;;;;11.43;5.50;;;21.10;99.90;;;;;;6279339;22;20023;-84
2023/08/06 10:55:38;;;;;;;9.13;4.85;;;21.30;99.90;;;;;;6277719;22;20374;-85
2023/08/06 10:58:05;;;;;;;11.30;5.47;;;21.30;99.90;;;;;;6305295;22;20447;-83
2023/08/06 11:00:33;;;;;;;9.00;4.40;;;21.20;99.90;;;;;;6277295;22;20015;-85
2023/08/06 11:13:38;;;;;;;9.20;5.00;;;21.20;99.90;;;;;;6281479;22;20061;-84
2023/08/06 11:17:13;;;;;;;;;;;;;;;;;;;;;
2023/08/06 11:20:28;;;;;;;8.45;4.05;;;22.40;99.90;;;;;;6110307;23;20016;-83
2023/08/06 11:23:13;;;;;;;8.60;4.25;;;22.90;99.90;;;;;;6150697;23;20021;-83
2023/08/06 11:26:01;;;;;;;9.40;4.00;;;23.40;99.90;;;;;;6239317;22;20030;-83
2023/08/06 11:28:27;;;;;;;8.57;3.95;;;23.50;99.90;;;;;;6304215;22;20019;-83
2023/08/06 11:31:42;;;;;;;8.35;3.92;;;23.90;99.90;;;;;;6278903;22;20343;-83
2023/08/06 11:34:24;;;;;;;8.68;3.90;;;24.00;99.90;;;;;;6284899;22;20019;-83
2023/08/06 11:37:02;;;;;;;8.15;3.85;;;24.30;99.90;;;;;;6278550;22;20023;-83
2023/08/06 11:39:50;;;;;;;8.32;4.00;;;24.20;99.90;;;;;;6279046;22;20110;-83
2023/08/06 11:46:03;;;;;;;9.00;4.13;;;23.70;99.90;;;;;;6305021;22;20014;-83
2023/08/06 12:08:27;;;;;;;8.95;4.60;;;19.80;99.90;;;;;;6233610;22;20047;-81
2023/08/06 12:14:56;;;;;;;8.82;4.80;;;19.60;99.90;;;;;;6306901;22;20137;-85
2023/08/06 12:21:12;;;;;;;8.50;4.22;;;19.60;99.90;;;;;;6276735;22;20312;-84
2023/08/06 12:37:54;;;;;;;9.65;3.20;;;19.90;99.90;;;;;;6273242;22;20029;-83
2023/08/06 12:40:34;;;;;;;8.65;3.50;;;20.00;99.90;;;;;;6275421;22;20023;-84
2023/08/06 12:43:19;;;;;;;10.50;3.47;;;20.10;99.90;;;;;;6276134;22;20011;-84
2023/08/06 12:50:21;;;;;;;7.50;3.17;;;20.20;99.90;;;;;;6245137;23;20031;-83
2023/08/06 12:52:53;;;;;;;;;;;20.30;99.90;;;;;;6218697;23;20020;-83
2023/08/06 12:55:21;;;;;;;7.55;3.00;;;20.60;99.90;;;;;;6245986;23;19922;-83
2023/08/06 12:57:56;;;;;;;7.28;2.58;;;20.60;99.90;;;;;;6218597;23;20019;-82
2023/08/06 13:00:47;;;;;;;7.93;3.00;;;20.70;99.90;;;;;;6244053;23;20008;-83
2023/08/06 13:03:32;;;;;;;8.07;2.95;;;20.60;99.90;;;;;;6218758;23;20020;-83
2023/08/06 13:05:58;;;;;;;8.80;3.05;;;20.60;99.90;;;;;;6244918;23;20356;-82
2023/08/06 13:09:01;;;;;;;7.10;2.90;;;20.70;99.90;;;;;;6217670;23;20023;-82
2023/08/06 13:11:27;;;;;;;7.10;2.97;;;20.60;99.90;;;;;;6245512;23;20094;-82
2023/08/06 13:14:28;;;;;;;7.15;2.80;;;20.70;99.90;;;;;;6245325;23;20424;-83
2023/08/06 13:16:57;;;;;;;8.40;2.90;;;20.90;99.90;;;;;;6218048;23;20027;-83
2023/08/06 13:19:23;;;;;;;6.82;2.75;;;20.70;99.90;;;;;;6218616;23;20023;-82
2023/08/06 13:21:49;;;;;;;8.38;2.65;;;20.60;99.90;;;;;;6216950;23;20015;-82
2023/08/06 13:24:15;;;;;;;7.45;2.88;;;20.60;99.90;;;;;;6245878;23;20073;-83
2023/08/06 13:26:47;;;;;;;7.82;2.88;;;20.50;99.90;;;;;;6217920;23;20508;-83
2023/08/06 13:29:32;;;;;;;6.90;2.63;;;20.30;99.90;;;;;;6217560;23;20027;-83
2023/08/06 13:31:58;;;;;;;7.22;2.75;;;20.10;99.90;;;;;;6245239;23;20016;-83
2023/08/06 13:48:32;;;;;;;7.40;2.60;;;19.80;99.90;;;;;;6092867;23;20026;-82
2023/08/06 13:51:13;;;;;;;8.10;2.92;;;19.70;99.90;;;;;;6192015;23;20354;-82
2023/08/06 13:53:39;;;;;;;8.10;3.05;;;19.70;99.90;;;;;;6191933;23;20042;-82
2023/08/06 13:56:20;;;;;;;8.02;2.70;;;19.70;99.90;;;;;;6092340;23;20022;-82
2023/08/06 13:59:05;;;;;;;7.57;2.88;;;19.60;99.90;;;;;;6268345;22;20046;-82
2023/08/06 14:25:08;;;;;;;8.05;3.08;;;19.40;99.90;;;;;;6244203;23;19910;-82
2023/08/06 14:27:55;;;;;;;8.70;3.30;;;19.40;99.90;;;;;;6245223;23;20020;-82
2023/08/06 14:30:56;;;;;;;9.73;3.70;;;19.30;99.90;;;;;;6245019;23;20510;-83
2023/08/06 14:33:33;;;;;;;7.90;3.30;;;19.10;99.90;;;;;;6185557;23;20020;-83
2023/08/06 14:36:08;;;;;;;8.10;3.15;;;18.90;99.90;;;;;;6212061;23;20013;-82
2023/08/06 14:39:40;;;;;;;7.57;3.28;;;18.80;99.90;;;;;;6216243;23;20372;-82
2023/08/06 14:42:30;;;;;;;8.90;3.53;;;18.60;99.90;;;;;;6186907;23;20140;-83
2023/08/06 14:44:55;;;;;;;8.05;3.63;;;18.20;99.90;;;;;;6211817;23;20040;-83
2023/08/06 14:47:23;;;;;;;9.10;3.17;;;18.30;99.90;;;;;;6198456;22;22046;-83
2023/08/06 14:50:13;;;;;;;7.93;3.42;;;18.20;99.90;;;;;;6306409;22;20482;-83
2023/08/06 14:52:39;;;;;;;8.25;3.60;;;17.80;99.90;;;;;;6304582;22;20454;-83
2023/08/06 14:55:24;;;;;;;8.10;3.53;;;18.20;99.90;;;;;;6280324;22;20019;-83
2023/08/06 14:58:02;;;;;;;8.98;3.72;;;18.10;99.90;;;;;;6280464;22;20355;-83
2023/08/06 15:00:37;;;;;;;8.00;3.80;;;18.20;99.90;;;;;;6280453;22;20033;-82
2023/08/06 15:03:37;;;;;;;10.40;4.10;;;18.20;99.90;;;;;;6280290;22;20012;-82
2023/08/06 15:06:03;;;;;;;8.88;4.20;;;18.20;99.90;;;;;;6277276;22;20022;-81
2023/08/06 15:08:28;;;;;;;9.05;4.07;;;17.90;99.90;;;;;;6249591;22;20015;-82
2023/08/06 15:11:16;;;;;;;8.95;4.45;;;18.40;99.90;;;;;;6248739;22;20375;-82
2023/08/06 15:14:00;;;;;;;9.00;3.95;;;18.40;99.90;;;;;;6246209;22;20091;-82
2023/08/06 15:16:26;;;;;;;9.27;3.78;;;18.50;99.90;;;;;;6249035;22;20015;-82
2023/08/06 15:18:52;;;;;;;8.43;3.83;;;18.70;99.90;;;;;;6223665;22;20019;-82
2023/08/06 15:21:59;;;;;;;7.55;3.00;;;18.80;99.90;;;;;;6288874;22;20034;-82
2023/08/06 15:24:45;;;;;;;8.38;3.10;;;18.70;99.90;;;;;;6280719;22;20023;-83
2023/08/06 15:27:29;;;;;;;7.65;3.13;;;18.80;99.90;;;;;;6280052;22;20018;-82
2023/08/06 15:30:17;;;;;;;8.10;2.72;;;18.80;99.90;;;;;;6306699;22;20145;-82
2023/08/06 15:32:52;;;;;;;7.35;2.90;;;18.80;99.90;;;;;;6280164;22;20016;-83
2023/08/06 15:35:32;;;;;;;7.63;2.90;;;18.80;99.90;;;;;;6306934;22;20019;-83
2023/08/06 15:37:58;;;;;;;8.07;3.17;;;18.80;99.90;;;;;;6280042;22;20454;-82
2023/08/06 15:40:53;;;;;;;7.53;3.00;;;18.90;99.90;;;;;;6239829;22;20019;-83
2023/08/06 15:43:25;;;;;;;7.65;2.80;;;18.90;99.90;;;;;;6279090;22;20023;-82
2023/08/06 15:45:54;;;;;;;7.85;3.00;;;18.90;99.90;;;;;;6307348;22;20336;-83
2023/08/06 15:48:19;;;;;;;7.53;3.00;;;18.90;99.90;;;;;;6280770;22;20015;-82
2023/08/06 15:50:45;;;;;;;7.72;2.97;;;19.00;99.90;;;;;;6279067;22;20003;-82
2023/08/06 15:53:31;;;;;;;7.60;3.05;;;19.00;99.90;;;;;;6280339;22;20023;-82
2023/08/06 15:55:57;;;;;;;7.43;2.80;;;19.00;99.90;;;;;;6279241;22;20065;-82
2023/08/06 15:58:28;;;;;;;8.23;3.00;;;19.00;99.90;;;;;;6307264;22;20446;-83
2023/08/06 16:00:54;;;;;;;7.20;2.80;;;18.80;99.90;;;;;;6280323;22;20504;-83
2023/08/06 16:03:57;;;;;;;6.85;2.50;;;18.80;99.90;;;;;;6279690;22;20090;-83
2023/08/06 16:06:50;;;;;;;6.53;2.50;;;18.20;99.90;;;;;;6282612;22;20095;-83
2023/08/06 16:09:31;;;;;;;7.15;2.92;;;18.60;99.90;;;;;;6280709;22;20068;-82
2023/08/06 16:11:57;;;;;;;7.20;2.70;;;18.60;99.90;;;;;;6306918;22;20058;-82
2023/08/06 16:15:13;;;;;;;7.25;2.67;;;18.60;99.90;;;;;;6309066;22;20015;-82
2023/08/06 16:18:03;;;;;;;7.85;2.65;;;18.60;99.90;;;;;;6286267;22;20014;-83
2023/08/06 16:21:05;;;;;;;7.22;2.72;;;18.60;99.90;;;;;;6280177;22;20094;-83
2023/08/06 16:27:15;;;;;;;7.20;2.60;;;18.60;99.90;;;;;;6280383;22;20015;-83
2023/08/06 16:29:40;;;;;;;6.93;2.70;;;18.70;99.90;;;;;;6279626;22;20492;-83
2023/08/06 16:32:22;;;;;;;7.97;2.85;;;18.80;99.90;;;;;;6279183;22;20015;-83
2023/08/06 16:35:17;;;;;;;7.57;2.80;;;18.90;99.90;;;;;;6279741;22;20015;-82
2023/08/06 16:38:08;;;;;;;7.03;2.60;;;19.20;99.90;;;;;;6258263;22;20094;-82
2023/08/06 16:44:17;;;;;;;7.63;2.95;;;19.60;99.90;;;;;;6309155;22;20046;-82
2023/08/06 16:47:14;;;;;;;8.43;3.20;;;19.60;99.90;;;;;;6279602;22;20366;-82
2023/08/06 16:49:52;;;;;;;7.85;2.85;;;19.40;99.90;;;;;;6308712;22;20037;-83
2023/08/06 16:52:51;;;;;;;7.47;2.78;;;19.40;99.90;;;;;;6279676;22;20039;-82
2023/08/06 16:55:19;;;;;;;8.45;2.85;;;19.20;99.90;;;;;;6306896;22;20015;-82
2023/08/06 16:58:00;;;;;;;7.28;2.60;;;19.20;99.90;;;;;;6279858;22;20004;-82
2023/08/06 17:00:55;;;;;;;8.85;2.72;;;19.00;99.90;;;;;;6306716;22;20022;-83
2023/08/06 17:03:21;;;;;;;7.72;2.67;;;18.90;99.90;;;;;;6279859;22;20019;-83
2023/08/06 17:06:02;;;;;;;6.85;2.70;;;18.90;99.90;;;;;;6306596;22;20038;-83
2023/08/06 17:08:43;;;;;;;8.88;3.00;;;18.80;99.90;;;;;;6279776;22;20451;-82